sensor_id;sensor_type;location;lat;lon;timestamp;pressure;altitude;pressure_sealevel;temperature;humidity
829;BME280;396;52.558;13.188;2024-02-23T00:01:10;97938.19;;;10.78;100.00
829;BME280;396;52.558;13.188;2024-02-23T00:03:37;97923.09;;;10.77;100.00
829;BME280;396;52.558;13.188;2024-02-23T00:06:04;97920.47;;;10.84;100.00
829;BME280;396;52.558;13.188;2024-02-23T00:08:30;97932.88;;;10.85;100.00
829;BME280;396;52.558;13.188;2024-02-23T00:10:57;97929.00;;;10.86;100.00
829;BME280;396;52.558;13.188;2024-02-23T00:13:25;97944.19;;;10.95;100.00
829;BME280;396;52.558;13.188;2024-02-23T00:15:51;97939.66;;;11.02;100.00
829;BME280;396;52.558;13.188;2024-02-23T00:18:18;97943.53;;;11.05;100.00
829;BME280;396;52.558;13.188;2024-02-23T00:20:46;97934.69;;;11.08;100.00
829;BME280;396;52.558;13.188;2024-02-23T00:23:13;97928.81;;;11.02;100.00
829;BME280;396;52.558;13.188;2024-02-23T00:25:39;97930.72;;;10.98;100.00
829;BME280;396;52.558;13.188;2024-02-23T00:28:06;97924.50;;;10.98;100.00
829;BME280;396;52.558;13.188;2024-02-23T00:30:34;97926.13;;;11.02;100.00
829;BME280;396;52.558;13.188;2024-02-23T00:33:01;97931.16;;;11.04;100.00
829;BME280;396;52.558;13.188;2024-02-23T00:35:27;97932.31;;;11.03;100.00
829;BME280;396;52.558;13.188;2024-02-23T00:37:54;97929.19;;;11.01;100.00
829;BME280;396;52.558;13.188;2024-02-23T00:40:20;97922.19;;;11.00;100.00
829;BME280;396;52.558;13.188;2024-02-23T00:42:48;97937.63;;;10.96;100.00
829;BME280;396;52.558;13.188;2024-02-23T00:45:15;97934.19;;;10.99;100.00
829;BME280;396;52.558;13.188;2024-02-23T00:47:44;97929.56;;;10.99;100.00
829;BME280;396;52.558;13.188;2024-02-23T00:50:12;97927.50;;;10.89;100.00
829;BME280;396;52.558;13.188;2024-02-23T00:52:38;97938.34;;;10.89;100.00
829;BME280;396;52.558;13.188;2024-02-23T00:55:06;97946.88;;;10.91;100.00
829;BME280;396;52.558;13.188;2024-02-23T00:57:34;97966.31;;;11.00;100.00
829;BME280;396;52.558;13.188;2024-02-23T01:00:01;97975.22;;;11.01;100.00
829;BME280;396;52.558;13.188;2024-02-23T01:02:28;97972.63;;;11.08;100.00
829;BME280;396;52.558;13.188;2024-02-23T01:04:56;97972.63;;;11.08;100.00
829;BME280;396;52.558;13.188;2024-02-23T01:07:24;97962.22;;;11.14;100.00
829;BME280;396;52.558;13.188;2024-02-23T01:09:50;97984.34;;;11.19;100.00
829;BME280;396;52.558;13.188;2024-02-23T01:12:17;97986.31;;;11.22;100.00
829;BME280;396;52.558;13.188;2024-02-23T01:14:43;97993.78;;;11.32;100.00
829;BME280;396;52.558;13.188;2024-02-23T01:17:10;98005.53;;;11.44;100.00
829;BME280;396;52.558;13.188;2024-02-23T01:19:37;98000.13;;;11.44;100.00
829;BME280;396;52.558;13.188;2024-02-23T01:22:05;98023.47;;;11.52;100.00
829;BME280;396;52.558;13.188;2024-02-23T01:24:31;98021.97;;;11.58;100.00
829;BME280;396;52.558;13.188;2024-02-23T01:26:58;98022.84;;;11.66;99.61
829;BME280;396;52.558;13.188;2024-02-23T01:29:25;98025.97;;;11.71;98.53
829;BME280;396;52.558;13.188;2024-02-23T01:31:52;98029.91;;;11.74;97.93
829;BME280;396;52.558;13.188;2024-02-23T01:34:20;98040.41;;;11.79;96.94
829;BME280;396;52.558;13.188;2024-02-23T01:36:46;98045.31;;;11.66;98.72
829;BME280;396;52.558;13.188;2024-02-23T01:39:14;98044.88;;;11.64;98.21
829;BME280;396;52.558;13.188;2024-02-23T01:41:41;98063.13;;;11.67;96.01
829;BME280;396;52.558;13.188;2024-02-23T01:44:09;98068.69;;;11.78;93.51
829;BME280;396;52.558;13.188;2024-02-23T01:46:36;98066.59;;;11.98;91.33
829;BME280;396;52.558;13.188;2024-02-23T01:49:02;98094.38;;;11.88;92.77
829;BME280;396;52.558;13.188;2024-02-23T01:51:30;98099.44;;;11.89;90.43
829;BME280;396;52.558;13.188;2024-02-23T01:53:57;98111.16;;;11.97;87.97
829;BME280;396;52.558;13.188;2024-02-23T01:56:26;98119.97;;;11.86;88.78
829;BME280;396;52.558;13.188;2024-02-23T01:58:55;98120.69;;;11.83;85.21
829;BME280;396;52.558;13.188;2024-02-23T02:01:21;98142.44;;;11.87;85.87
829;BME280;396;52.558;13.188;2024-02-23T02:03:48;98161.44;;;11.87;85.02
829;BME280;396;52.558;13.188;2024-02-23T02:06:15;98158.78;;;11.94;82.10
829;BME280;396;52.558;13.188;2024-02-23T02:08:42;98171.91;;;11.89;82.18
829;BME280;396;52.558;13.188;2024-02-23T02:11:08;98185.06;;;11.90;78.95
829;BME280;396;52.558;13.188;2024-02-23T02:13:36;98196.69;;;11.87;79.39
829;BME280;396;52.558;13.188;2024-02-23T02:16:03;98202.06;;;11.83;76.71
829;BME280;396;52.558;13.188;2024-02-23T02:18:30;98209.66;;;11.74;75.85
829;BME280;396;52.558;13.188;2024-02-23T02:20:57;98214.25;;;11.70;76.06
829;BME280;396;52.558;13.188;2024-02-23T02:23:24;98225.75;;;11.63;76.84
829;BME280;396;52.558;13.188;2024-02-23T02:25:53;98236.47;;;11.53;76.90
829;BME280;396;52.558;13.188;2024-02-23T02:28:20;98257.91;;;11.61;73.40
829;BME280;396;52.558;13.188;2024-02-23T02:30:48;98270.88;;;11.49;73.07
829;BME280;396;52.558;13.188;2024-02-23T02:33:14;98275.56;;;11.52;69.97
829;BME280;396;52.558;13.188;2024-02-23T02:35:41;98296.59;;;11.35;71.18
829;BME280;396;52.558;13.188;2024-02-23T02:38:08;98289.44;;;11.24;70.14
829;BME280;396;52.558;13.188;2024-02-23T02:40:35;98306.47;;;11.24;66.62
829;BME280;396;52.558;13.188;2024-02-23T02:43:01;98318.34;;;11.16;67.41
829;BME280;396;52.558;13.188;2024-02-23T02:48:51;98345.41;;;10.93;67.24
829;BME280;396;52.558;13.188;2024-02-23T02:51:18;98337.22;;;10.90;67.20
829;BME280;396;52.558;13.188;2024-02-23T02:53:45;98312.72;;;10.82;68.16
829;BME280;396;52.558;13.188;2024-02-23T02:56:11;98340.50;;;10.79;67.42
829;BME280;396;52.558;13.188;2024-02-23T02:58:38;98336.50;;;10.73;68.82
829;BME280;396;52.558;13.188;2024-02-23T03:01:04;98343.16;;;10.76;67.13
829;BME280;396;52.558;13.188;2024-02-23T03:03:31;98353.47;;;10.70;68.18
829;BME280;396;52.558;13.188;2024-02-23T03:05:59;98345.22;;;10.63;68.55
829;BME280;396;52.558;13.188;2024-02-23T03:08:25;98352.13;;;10.60;69.04
829;BME280;396;52.558;13.188;2024-02-23T03:10:52;98362.38;;;10.51;69.56
829;BME280;396;52.558;13.188;2024-02-23T03:13:19;98359.16;;;10.46;70.73
829;BME280;396;52.558;13.188;2024-02-23T03:15:45;98374.38;;;10.34;69.73
829;BME280;396;52.558;13.188;2024-02-23T03:18:12;98362.69;;;10.30;70.25
829;BME280;396;52.558;13.188;2024-02-23T03:20:40;98379.00;;;10.34;68.71
829;BME280;396;52.558;13.188;2024-02-23T03:23:08;98385.66;;;10.37;67.99
829;BME280;396;52.558;13.188;2024-02-23T03:25:35;98373.44;;;10.27;70.31
829;BME280;396;52.558;13.188;2024-02-23T03:28:01;98379.72;;;10.15;69.92
829;BME280;396;52.558;13.188;2024-02-23T03:30:28;98379.28;;;10.13;70.07
829;BME280;396;52.558;13.188;2024-02-23T03:32:55;98396.91;;;10.23;68.70
829;BME280;396;52.558;13.188;2024-02-23T03:35:21;98390.19;;;10.17;68.28
829;BME280;396;52.558;13.188;2024-02-23T03:37:48;98409.63;;;10.22;67.20
829;BME280;396;52.558;13.188;2024-02-23T03:40:16;98414.53;;;10.17;68.29
829;BME280;396;52.558;13.188;2024-02-23T03:42:44;98412.97;;;10.16;67.84
829;BME280;396;52.558;13.188;2024-02-23T03:45:11;98413.25;;;10.10;67.89
829;BME280;396;52.558;13.188;2024-02-23T03:47:38;98418.66;;;10.10;66.46
829;BME280;396;52.558;13.188;2024-02-23T03:50:06;98427.84;;;10.06;68.34
829;BME280;396;52.558;13.188;2024-02-23T03:52:33;98431.50;;;9.98;68.47
829;BME280;396;52.558;13.188;2024-02-23T03:54:59;98440.22;;;10.07;67.96
829;BME280;396;52.558;13.188;2024-02-23T03:57:27;98445.88;;;10.02;68.33
829;BME280;396;52.558;13.188;2024-02-23T03:59:54;98463.00;;;10.06;66.68
829;BME280;396;52.558;13.188;2024-02-23T04:02:21;98463.41;;;10.08;66.43
829;BME280;396;52.558;13.188;2024-02-23T04:04:48;98462.63;;;10.07;66.50
829;BME280;396;52.558;13.188;2024-02-23T04:07:15;98475.38;;;10.07;66.21
829;BME280;396;52.558;13.188;2024-02-23T04:09:42;98474.16;;;10.04;68.19
829;BME280;396;52.558;13.188;2024-02-23T04:12:08;98483.31;;;10.00;67.23
829;BME280;396;52.558;13.188;2024-02-23T04:14:36;98506.69;;;9.92;69.22
829;BME280;396;52.558;13.188;2024-02-23T04:17:03;98489.44;;;9.97;66.69
829;BME280;396;52.558;13.188;2024-02-23T04:19:30;98503.72;;;9.97;67.38
829;BME280;396;52.558;13.188;2024-02-23T04:21:56;98514.03;;;9.92;65.37
829;BME280;396;52.558;13.188;2024-02-23T04:24:23;98521.88;;;9.97;65.47
829;BME280;396;52.558;13.188;2024-02-23T04:26:49;98512.28;;;9.99;64.75
829;BME280;396;52.558;13.188;2024-02-23T04:29:16;98523.09;;;9.99;64.32
829;BME280;396;52.558;13.188;2024-02-23T04:31:44;98518.31;;;9.93;65.99
829;BME280;396;52.558;13.188;2024-02-23T04:34:11;98544.19;;;9.94;64.53
829;BME280;396;52.558;13.188;2024-02-23T04:36:37;98542.63;;;9.93;64.16
829;BME280;396;52.558;13.188;2024-02-23T04:39:04;98550.56;;;9.85;65.63
829;BME280;396;52.558;13.188;2024-02-23T04:41:30;98546.72;;;9.86;64.34
829;BME280;396;52.558;13.188;2024-02-23T04:43:57;98564.28;;;9.93;62.43
829;BME280;396;52.558;13.188;2024-02-23T04:46:25;98561.00;;;9.87;63.62
829;BME280;396;52.558;13.188;2024-02-23T04:48:53;98577.41;;;9.78;64.48
829;BME280;396;52.558;13.188;2024-02-23T04:51:20;98592.75;;;9.74;64.30
829;BME280;396;52.558;13.188;2024-02-23T04:53:47;98616.38;;;9.77;63.13
829;BME280;396;52.558;13.188;2024-02-23T04:56:14;98607.94;;;9.79;63.85
829;BME280;396;52.558;13.188;2024-02-23T04:58:41;98623.16;;;9.71;63.19
829;BME280;396;52.558;13.188;2024-02-23T05:01:08;98632.50;;;9.74;61.22
829;BME280;396;52.558;13.188;2024-02-23T05:03:36;98638.16;;;9.69;60.92
829;BME280;396;52.558;13.188;2024-02-23T05:06:04;98664.53;;;9.59;60.84
829;BME280;396;52.558;13.188;2024-02-23T05:08:31;98650.47;;;9.54;61.11
829;BME280;396;52.558;13.188;2024-02-23T05:10:58;98639.69;;;9.42;61.55
829;BME280;396;52.558;13.188;2024-02-23T05:13:24;98662.91;;;9.30;63.17
829;BME280;396;52.558;13.188;2024-02-23T05:15:51;98677.09;;;9.15;62.90
829;BME280;396;52.558;13.188;2024-02-23T05:18:17;98670.22;;;9.18;61.94
829;BME280;396;52.558;13.188;2024-02-23T05:20:43;98683.50;;;9.10;62.40
829;BME280;396;52.558;13.188;2024-02-23T05:23:11;98683.38;;;9.07;62.82
829;BME280;396;52.558;13.188;2024-02-23T05:25:40;98692.06;;;9.00;63.18
829;BME280;396;52.558;13.188;2024-02-23T05:28:07;98693.75;;;8.93;65.37
829;BME280;396;52.558;13.188;2024-02-23T05:30:34;98707.03;;;8.86;65.96
829;BME280;396;52.558;13.188;2024-02-23T05:33:00;98707.34;;;8.84;65.13
829;BME280;396;52.558;13.188;2024-02-23T05:35:28;98699.81;;;8.77;65.14
829;BME280;396;52.558;13.188;2024-02-23T05:37:55;98723.41;;;8.68;66.77
829;BME280;396;52.558;13.188;2024-02-23T05:40:23;98731.03;;;8.66;66.73
829;BME280;396;52.558;13.188;2024-02-23T05:42:49;98749.22;;;8.57;68.51
829;BME280;396;52.558;13.188;2024-02-23T05:45:16;98745.81;;;8.48;70.04
829;BME280;396;52.558;13.188;2024-02-23T05:47:42;98748.09;;;8.46;69.34
829;BME280;396;52.558;13.188;2024-02-23T05:50:09;98763.59;;;8.49;68.34
829;BME280;396;52.558;13.188;2024-02-23T05:52:35;98776.38;;;8.40;69.87
829;BME280;396;52.558;13.188;2024-02-23T05:55:02;98770.19;;;8.39;70.55
829;BME280;396;52.558;13.188;2024-02-23T05:57:30;98769.09;;;8.31;70.95
829;BME280;396;52.558;13.188;2024-02-23T05:59:57;98774.13;;;8.21;71.39
829;BME280;396;52.558;13.188;2024-02-23T06:02:24;98777.59;;;8.21;71.26
829;BME280;396;52.558;13.188;2024-02-23T06:04:51;98781.75;;;8.19;70.85
829;BME280;396;52.558;13.188;2024-02-23T06:07:17;98802.66;;;8.22;70.16
829;BME280;396;52.558;13.188;2024-02-23T06:09:46;98814.03;;;8.27;69.47
829;BME280;396;52.558;13.188;2024-02-23T06:12:12;98818.34;;;8.28;69.35
829;BME280;396;52.558;13.188;2024-02-23T06:14:40;98816.28;;;8.25;70.90
829;BME280;396;52.558;13.188;2024-02-23T06:17:07;98826.34;;;8.16;72.55
829;BME280;396;52.558;13.188;2024-02-23T06:19:34;98847.13;;;8.16;71.79
829;BME280;396;52.558;13.188;2024-02-23T06:22:00;98859.34;;;8.13;71.20
829;BME280;396;52.558;13.188;2024-02-23T06:24:27;98861.41;;;8.16;70.09
829;BME280;396;52.558;13.188;2024-02-23T06:26:53;98850.97;;;8.15;71.64
829;BME280;396;52.558;13.188;2024-02-23T06:29:20;98865.22;;;8.15;71.80
829;BME280;396;52.558;13.188;2024-02-23T06:31:48;98869.88;;;8.06;72.64
829;BME280;396;52.558;13.188;2024-02-23T06:34:15;98869.06;;;8.05;72.26
829;BME280;396;52.558;13.188;2024-02-23T06:36:41;98869.75;;;8.02;73.32
829;BME280;396;52.558;13.188;2024-02-23T06:39:08;98874.22;;;7.98;72.39
829;BME280;396;52.558;13.188;2024-02-23T06:41:36;98879.44;;;7.95;72.04
829;BME280;396;52.558;13.188;2024-02-23T06:44:04;98889.44;;;7.94;72.70
829;BME280;396;52.558;13.188;2024-02-23T06:46:30;98897.53;;;7.94;76.58
829;BME280;396;52.558;13.188;2024-02-23T06:48:58;98893.38;;;7.97;73.72
829;BME280;396;52.558;13.188;2024-02-23T06:51:25;98911.44;;;8.05;72.44
829;BME280;396;52.558;13.188;2024-02-23T06:53:52;98902.34;;;8.09;72.59
829;BME280;396;52.558;13.188;2024-02-23T06:56:20;98908.69;;;8.14;73.33
829;BME280;396;52.558;13.188;2024-02-23T06:58:46;98927.06;;;8.20;73.34
829;BME280;396;52.558;13.188;2024-02-23T07:01:13;98920.53;;;8.21;74.23
829;BME280;396;52.558;13.188;2024-02-23T07:03:39;98906.72;;;8.23;73.27
829;BME280;396;52.558;13.188;2024-02-23T07:06:10;98935.69;;;8.34;73.26
829;BME280;396;52.558;13.188;2024-02-23T07:08:36;98928.91;;;8.37;70.04
829;BME280;396;52.558;13.188;2024-02-23T07:11:03;98934.41;;;8.41;70.03
829;BME280;396;52.558;13.188;2024-02-23T07:13:30;98940.63;;;8.41;71.77
829;BME280;396;52.558;13.188;2024-02-23T07:15:58;98946.13;;;8.45;70.63
829;BME280;396;52.558;13.188;2024-02-23T07:18:26;98940.09;;;8.48;71.30
829;BME280;396;52.558;13.188;2024-02-23T07:20:53;98949.56;;;8.54;69.23
829;BME280;396;52.558;13.188;2024-02-23T07:23:21;98956.28;;;8.48;68.66
829;BME280;396;52.558;13.188;2024-02-23T07:25:49;98963.72;;;8.51;67.47
829;BME280;396;52.558;13.188;2024-02-23T07:28:16;98970.56;;;8.48;68.59
829;BME280;396;52.558;13.188;2024-02-23T07:30:45;98967.28;;;8.43;69.18
829;BME280;396;52.558;13.188;2024-02-23T07:33:11;98970.91;;;8.47;68.33
829;BME280;396;52.558;13.188;2024-02-23T07:35:38;98968.84;;;8.44;69.35
829;BME280;396;52.558;13.188;2024-02-23T07:38:04;98967.72;;;8.45;69.64
829;BME280;396;52.558;13.188;2024-02-23T07:40:32;98964.09;;;8.41;68.47
829;BME280;396;52.558;13.188;2024-02-23T07:42:59;98957.25;;;8.43;69.92
829;BME280;396;52.558;13.188;2024-02-23T07:45:25;98967.72;;;8.45;69.74
829;BME280;396;52.558;13.188;2024-02-23T07:47:52;98964.81;;;8.50;68.22
829;BME280;396;52.558;13.188;2024-02-23T07:50:19;98971.03;;;8.50;70.45
829;BME280;396;52.558;13.188;2024-02-23T07:52:45;98974.06;;;8.49;70.89
829;BME280;396;52.558;13.188;2024-02-23T07:55:12;98986.25;;;8.55;68.53
829;BME280;396;52.558;13.188;2024-02-23T07:57:40;98992.09;;;8.57;68.26
829;BME280;396;52.558;13.188;2024-02-23T08:00:07;98993.47;;;8.63;67.88
829;BME280;396;52.558;13.188;2024-02-23T08:02:35;99012.06;;;8.65;67.39
829;BME280;396;52.558;13.188;2024-02-23T08:05:01;99016.94;;;8.71;68.05
829;BME280;396;52.558;13.188;2024-02-23T08:07:29;99019.31;;;8.73;68.64
829;BME280;396;52.558;13.188;2024-02-23T08:09:56;99040.38;;;8.79;66.50
829;BME280;396;52.558;13.188;2024-02-23T08:12:22;99038.47;;;8.80;67.10
829;BME280;396;52.558;13.188;2024-02-23T08:14:50;99031.66;;;8.82;66.96
829;BME280;396;52.558;13.188;2024-02-23T08:17:18;99042.69;;;8.90;68.15
829;BME280;396;52.558;13.188;2024-02-23T08:19:46;99046.47;;;8.97;67.22
829;BME280;396;52.558;13.188;2024-02-23T08:22:12;99042.78;;;9.02;67.03
829;BME280;396;52.558;13.188;2024-02-23T08:24:39;99041.34;;;9.04;68.44
829;BME280;396;52.558;13.188;2024-02-23T08:27:05;99054.31;;;9.11;67.53
829;BME280;396;52.558;13.188;2024-02-23T08:29:32;99058.41;;;9.17;66.02
829;BME280;396;52.558;13.188;2024-02-23T08:32:00;99061.31;;;9.12;68.20
829;BME280;396;52.558;13.188;2024-02-23T08:34:26;99064.03;;;9.12;68.55
829;BME280;396;52.558;13.188;2024-02-23T08:36:53;99056.81;;;9.16;69.05
829;BME280;396;52.558;13.188;2024-02-23T08:39:20;99056.31;;;9.23;66.68
829;BME280;396;52.558;13.188;2024-02-23T08:41:47;99065.06;;;9.20;69.27
829;BME280;396;52.558;13.188;2024-02-23T08:44:14;99064.53;;;9.26;68.39
829;BME280;396;52.558;13.188;2024-02-23T08:46:40;99072.25;;;9.37;68.29
829;BME280;396;52.558;13.188;2024-02-23T08:49:09;99082.66;;;9.47;69.48
829;BME280;396;52.558;13.188;2024-02-23T08:51:35;99072.09;;;9.54;64.37
829;BME280;396;52.558;13.188;2024-02-23T08:54:03;99084.06;;;9.53;63.99
829;BME280;396;52.558;13.188;2024-02-23T08:56:30;99083.38;;;9.56;62.50
829;BME280;396;52.558;13.188;2024-02-23T08:58:58;99083.25;;;9.52;63.77
829;BME280;396;52.558;13.188;2024-02-23T09:01:24;99091.59;;;9.59;61.99
829;BME280;396;52.558;13.188;2024-02-23T09:03:51;99089.81;;;9.64;61.77
829;BME280;396;52.558;13.188;2024-02-23T09:06:19;99093.59;;;9.71;62.26
829;BME280;396;52.558;13.188;2024-02-23T09:08:45;99102.28;;;9.77;59.86
829;BME280;396;52.558;13.188;2024-02-23T09:11:12;99091.88;;;9.67;61.62
829;BME280;396;52.558;13.188;2024-02-23T09:13:40;99099.00;;;9.71;64.35
829;BME280;396;52.558;13.188;2024-02-23T09:16:07;99093.31;;;9.85;61.50
829;BME280;396;52.558;13.188;2024-02-23T09:18:35;99092.97;;;9.86;59.64
829;BME280;396;52.558;13.188;2024-02-23T09:21:01;99105.56;;;9.82;61.04
829;BME280;396;52.558;13.188;2024-02-23T09:23:29;99105.91;;;9.81;59.70
829;BME280;396;52.558;13.188;2024-02-23T09:25:56;99111.19;;;9.77;60.35
829;BME280;396;52.558;13.188;2024-02-23T09:28:23;99111.66;;;9.79;60.87
829;BME280;396;52.558;13.188;2024-02-23T09:30:50;99112.56;;;9.83;62.00
829;BME280;396;52.558;13.188;2024-02-23T09:33:16;99115.59;;;9.82;60.12
829;BME280;396;52.558;13.188;2024-02-23T09:35:43;99115.28;;;9.83;59.13
829;BME280;396;52.558;13.188;2024-02-23T09:38:09;99116.50;;;9.86;59.21
829;BME280;396;52.558;13.188;2024-02-23T09:40:39;99123.63;;;9.91;59.53
829;BME280;396;52.558;13.188;2024-02-23T09:43:07;99128.72;;;9.92;57.64
829;BME280;396;52.558;13.188;2024-02-23T09:45:37;99146.38;;;9.90;57.93
829;BME280;396;52.558;13.188;2024-02-23T09:48:05;99147.72;;;9.83;58.00
829;BME280;396;52.558;13.188;2024-02-23T09:50:33;99155.50;;;9.85;57.13
829;BME280;396;52.558;13.188;2024-02-23T09:53:01;99151.53;;;9.82;58.83
829;BME280;396;52.558;13.188;2024-02-23T09:55:29;99178.56;;;9.82;58.55
829;BME280;396;52.558;13.188;2024-02-23T09:57:58;99176.75;;;9.74;57.99
829;BME280;396;52.558;13.188;2024-02-23T10:00:26;99183.81;;;9.67;59.06
829;BME280;396;52.558;13.188;2024-02-23T10:02:54;99173.56;;;9.72;58.20
829;BME280;396;52.558;13.188;2024-02-23T10:05:23;99181.47;;;9.77;58.73
829;BME280;396;52.558;13.188;2024-02-23T10:07:52;99168.44;;;9.79;58.39
829;BME280;396;52.558;13.188;2024-02-23T10:10:24;99157.41;;;9.84;58.99
829;BME280;396;52.558;13.188;2024-02-23T10:12:52;99168.75;;;9.99;59.63
829;BME280;396;52.558;13.188;2024-02-23T10:15:19;99171.50;;;10.11;58.58
829;BME280;396;52.558;13.188;2024-02-23T10:17:46;99186.59;;;10.12;59.18
829;BME280;396;52.558;13.188;2024-02-23T10:20:14;99182.47;;;10.15;59.17
829;BME280;396;52.558;13.188;2024-02-23T10:22:40;99179.41;;;10.16;58.60
829;BME280;396;52.558;13.188;2024-02-23T10:25:08;99177.97;;;10.19;56.74
829;BME280;396;52.558;13.188;2024-02-23T10:27:34;99186.25;;;10.14;57.53
829;BME280;396;52.558;13.188;2024-02-23T10:30:01;99175.25;;;10.19;58.96
829;BME280;396;52.558;13.188;2024-02-23T10:32:29;99182.19;;;10.28;59.46
829;BME280;396;52.558;13.188;2024-02-23T10:35:00;99189.44;;;10.37;58.76
829;BME280;396;52.558;13.188;2024-02-23T10:37:29;99189.00;;;10.47;57.89
829;BME280;396;52.558;13.188;2024-02-23T10:39:58;99182.03;;;10.46;56.47
829;BME280;396;52.558;13.188;2024-02-23T10:42:33;99187.56;;;10.49;57.41
829;BME280;396;52.558;13.188;2024-02-23T10:45:01;99178.75;;;10.52;54.89
829;BME280;396;52.558;13.188;2024-02-23T10:47:31;99188.22;;;10.46;55.67
829;BME280;396;52.558;13.188;2024-02-23T10:50:00;99197.56;;;10.49;56.46
829;BME280;396;52.558;13.188;2024-02-23T10:52:27;99192.25;;;10.40;57.12
829;BME280;396;52.558;13.188;2024-02-23T10:54:55;99195.09;;;10.44;58.69
829;BME280;396;52.558;13.188;2024-02-23T10:57:22;99190.38;;;10.53;55.88
829;BME280;396;52.558;13.188;2024-02-23T10:59:49;99191.06;;;10.50;56.78
829;BME280;396;52.558;13.188;2024-02-23T11:02:18;99192.41;;;10.56;55.67
829;BME280;396;52.558;13.188;2024-02-23T11:04:48;99191.50;;;10.52;56.33
829;BME280;396;52.558;13.188;2024-02-23T11:07:19;99199.09;;;10.58;55.52
829;BME280;396;52.558;13.188;2024-02-23T11:09:49;99195.34;;;10.51;56.04
829;BME280;396;52.558;13.188;2024-02-23T11:12:22;99189.38;;;10.57;56.74
829;BME280;396;52.558;13.188;2024-02-23T11:14:49;99190.88;;;10.67;56.14
829;BME280;396;52.558;13.188;2024-02-23T11:17:17;99185.47;;;10.67;56.02
829;BME280;396;52.558;13.188;2024-02-23T11:19:46;99190.78;;;10.76;55.30
829;BME280;396;52.558;13.188;2024-02-23T11:22:23;99197.91;;;10.80;54.80
829;BME280;396;52.558;13.188;2024-02-23T11:24:50;99190.41;;;10.65;57.34
829;BME280;396;52.558;13.188;2024-02-23T11:27:17;99204.41;;;10.67;55.25
829;BME280;396;52.558;13.188;2024-02-23T11:29:45;99202.81;;;10.66;55.38
829;BME280;396;52.558;13.188;2024-02-23T11:32:15;99212.75;;;10.74;54.81
829;BME280;396;52.558;13.188;2024-02-23T11:34:53;99226.56;;;10.81;54.05
829;BME280;396;52.558;13.188;2024-02-23T11:37:22;99214.03;;;10.77;53.90
829;BME280;396;52.558;13.188;2024-02-23T11:39:49;99215.03;;;10.72;53.84
829;BME280;396;52.558;13.188;2024-02-23T11:42:17;99212.97;;;10.69;54.16
829;BME280;396;52.558;13.188;2024-02-23T11:44:44;99200.22;;;10.70;55.65
829;BME280;396;52.558;13.188;2024-02-23T11:47:11;99202.06;;;10.90;54.89
829;BME280;396;52.558;13.188;2024-02-23T11:49:37;99203.22;;;10.89;54.87
829;BME280;396;52.558;13.188;2024-02-23T11:52:04;99217.75;;;10.97;53.61
829;BME280;396;52.558;13.188;2024-02-23T11:54:32;99217.75;;;10.97;53.69
829;BME280;396;52.558;13.188;2024-02-23T11:56:59;99215.53;;;10.99;53.09
829;BME280;396;52.558;13.188;2024-02-23T11:59:26;99222.03;;;10.98;53.24
829;BME280;396;52.558;13.188;2024-02-23T12:01:52;99216.75;;;11.01;53.55
829;BME280;396;52.558;13.188;2024-02-23T12:04:19;99223.31;;;11.13;55.06
829;BME280;396;52.558;13.188;2024-02-23T12:06:47;99222.75;;;11.31;53.66
829;BME280;396;52.558;13.188;2024-02-23T12:09:14;99224.78;;;11.34;52.17
829;BME280;396;52.558;13.188;2024-02-23T12:11:42;99229.06;;;11.23;52.80
829;BME280;396;52.558;13.188;2024-02-23T12:14:09;99235.63;;;11.22;51.48
829;BME280;396;52.558;13.188;2024-02-23T12:16:36;99230.66;;;11.12;51.58
829;BME280;396;52.558;13.188;2024-02-23T12:19:03;99234.47;;;11.11;52.28
829;BME280;396;52.558;13.188;2024-02-23T12:21:30;99238.31;;;11.10;53.47
829;BME280;396;52.558;13.188;2024-02-23T12:23:56;99245.44;;;11.15;51.55
829;BME280;396;52.558;13.188;2024-02-23T12:26:23;99243.97;;;11.05;52.52
829;BME280;396;52.558;13.188;2024-02-23T12:28:51;99244.75;;;11.05;52.81
829;BME280;396;52.558;13.188;2024-02-23T12:31:23;99241.91;;;11.02;52.42
829;BME280;396;52.558;13.188;2024-02-23T12:33:50;99241.81;;;10.98;52.46
829;BME280;396;52.558;13.188;2024-02-23T12:36:16;99247.56;;;10.97;54.26
829;BME280;396;52.558;13.188;2024-02-23T12:38:43;99242.38;;;11.04;56.13
829;BME280;396;52.558;13.188;2024-02-23T12:41:10;99262.38;;;11.11;52.61
829;BME280;396;52.558;13.188;2024-02-23T12:43:37;99260.00;;;11.10;51.61
829;BME280;396;52.558;13.188;2024-02-23T12:46:05;99265.38;;;10.98;51.99
829;BME280;396;52.558;13.188;2024-02-23T12:48:34;99260.88;;;10.90;53.01
829;BME280;396;52.558;13.188;2024-02-23T12:51:00;99271.72;;;10.90;51.96
829;BME280;396;52.558;13.188;2024-02-23T12:53:32;99269.66;;;10.86;52.65
829;BME280;396;52.558;13.188;2024-02-23T12:56:00;99266.06;;;10.82;53.78
829;BME280;396;52.558;13.188;2024-02-23T12:58:27;99270.03;;;10.85;52.92
829;BME280;396;52.558;13.188;2024-02-23T13:00:54;99262.22;;;10.83;54.21
829;BME280;396;52.558;13.188;2024-02-23T13:03:22;99273.25;;;10.78;56.22
829;BME280;396;52.558;13.188;2024-02-23T13:05:49;99265.38;;;10.85;53.42
829;BME280;396;52.558;13.188;2024-02-23T13:08:16;99264.91;;;10.83;54.20
829;BME280;396;52.558;13.188;2024-02-23T13:10:43;99267.50;;;10.80;54.98
829;BME280;396;52.558;13.188;2024-02-23T13:13:09;99264.47;;;10.81;54.95
829;BME280;396;52.558;13.188;2024-02-23T13:15:36;99264.03;;;10.92;53.18
829;BME280;396;52.558;13.188;2024-02-23T13:18:03;99265.72;;;10.84;54.42
829;BME280;396;52.558;13.188;2024-02-23T13:20:32;99267.41;;;10.89;53.16
829;BME280;396;52.558;13.188;2024-02-23T13:22:59;99267.41;;;10.89;53.25
829;BME280;396;52.558;13.188;2024-02-23T13:25:25;99262.81;;;10.89;54.89
829;BME280;396;52.558;13.188;2024-02-23T13:27:52;99260.28;;;10.84;53.35
829;BME280;396;52.558;13.188;2024-02-23T13:30:19;99270.69;;;10.82;53.31
829;BME280;396;52.558;13.188;2024-02-23T13:32:45;99274.25;;;10.74;54.17
829;BME280;396;52.558;13.188;2024-02-23T13:35:12;99280.25;;;10.67;55.73
829;BME280;396;52.558;13.188;2024-02-23T13:37:41;99273.00;;;10.71;54.90
829;BME280;396;52.558;13.188;2024-02-23T13:40:10;99267.94;;;10.70;56.46